Alton, Utah
Current Conditions -  °F | °C
As of 1:53 PM on Saturday 22 Nov 2014 (Local Time) from KBCE Reporting Station
Clear Clear  
Wind Chill: 50°   Ceiling: Unl
Heat Index: 50°   Visibility: 10mi
Dew Point: 24°   Wind: 13mph
Humidity: 36%   Direction: 240°WSW
Pressure: 29.96"   Gusts: NA
Location:  37.44°N, 112.48°W
Report Text: KBCE 222053Z AUTO 24011KT 10SM CLR 10/M04 A2996 RMK AO2 SLP101 T01001044 58027
Loading
Personal Weather Stations






























Interactive Weather Map New forecast layout! Learn more

10-Day Weather Forecast

Advertisements
Track Severe Weather on mobile